Terminal Aerodrome Forecast
Issued by NWS

Home | Current Version | Previous Version | Text Only | Print | Product List | Glossary On
Versions: 1 2 3 4 5 6 7 8 9 10 11 12 13 14 15 16 17
617
FTPA31 PHFO 221739
TAFHJR
TAF
PHJR 221739Z 2218/2318 VRB03KT P6SM FEW025 BKN070 OVC200
     FM222100 14008KT P6SM VCSH SCT020 BKN050 BKN150
     FM230300 VRB05KT P6SM VCSH SCT020 BKN050 BKN200=

USA.gov is the U.S. government's official web portal to all federal, state and local government web resources and services.